sensor_id;sensor_type;location;lat;lon;timestamp;pressure;altitude;pressure_sealevel;temperature;humidity
15308;BME280;7755;52.208;6.964;2023-04-15T00:02:51;100530.53;;;8.45;82.36
15308;BME280;7755;52.208;6.964;2023-04-15T00:06:54;100530.66;;;8.38;82.49
15308;BME280;7755;52.208;6.964;2023-04-15T00:10:59;100527.16;;;8.31;84.00
15308;BME280;7755;52.208;6.964;2023-04-15T00:15:07;100532.44;;;8.26;85.07
15308;BME280;7755;52.208;6.964;2023-04-15T00:19:10;100519.84;;;8.20;85.57
15308;BME280;7755;52.208;6.964;2023-04-15T00:23:13;100517.81;;;8.15;85.05
15308;BME280;7755;52.208;6.964;2023-04-15T00:27:17;100524.53;;;8.13;86.01
15308;BME280;7755;52.208;6.964;2023-04-15T00:31:20;100521.66;;;8.08;86.20
15308;BME280;7755;52.208;6.964;2023-04-15T00:35:24;100521.28;;;8.04;86.13
15308;BME280;7755;52.208;6.964;2023-04-15T00:39:27;100528.44;;;7.99;86.15
15308;BME280;7755;52.208;6.964;2023-04-15T00:43:31;100524.56;;;7.94;86.55
15308;BME280;7755;52.208;6.964;2023-04-15T00:47:35;100530.28;;;7.86;87.28
15308;BME280;7755;52.208;6.964;2023-04-15T00:51:39;100536.59;;;7.80;87.67
15308;BME280;7755;52.208;6.964;2023-04-15T00:55:41;100543.50;;;7.76;88.20
15308;BME280;7755;52.208;6.964;2023-04-15T00:59:46;100535.69;;;7.68;89.27
15308;BME280;7755;52.208;6.964;2023-04-15T01:03:49;100541.53;;;7.65;89.84
15308;BME280;7755;52.208;6.964;2023-04-15T01:07:52;100535.38;;;7.58;91.22
15308;BME280;7755;52.208;6.964;2023-04-15T01:11:55;100536.88;;;7.54;91.56
15308;BME280;7755;52.208;6.964;2023-04-15T01:16:00;100527.31;;;7.51;91.86
15308;BME280;7755;52.208;6.964;2023-04-15T01:20:05;100538.84;;;7.47;92.95
15308;BME280;7755;52.208;6.964;2023-04-15T01:24:12;100538.22;;;7.45;93.98
15308;BME280;7755;52.208;6.964;2023-04-15T01:28:18;100531.78;;;7.46;93.60
15308;BME280;7755;52.208;6.964;2023-04-15T01:32:21;100534.25;;;7.47;94.25
15308;BME280;7755;52.208;6.964;2023-04-15T01:36:25;100536.38;;;7.45;93.83
15308;BME280;7755;52.208;6.964;2023-04-15T01:40:28;100535.50;;;7.45;94.15
15308;BME280;7755;52.208;6.964;2023-04-15T01:44:33;100544.69;;;7.44;93.86
15308;BME280;7755;52.208;6.964;2023-04-15T01:48:36;100546.78;;;7.42;93.93
15308;BME280;7755;52.208;6.964;2023-04-15T01:52:39;100546.41;;;7.38;93.81
15308;BME280;7755;52.208;6.964;2023-04-15T01:56:42;100557.91;;;7.33;93.65
15308;BME280;7755;52.208;6.964;2023-04-15T02:00:47;100545.63;;;7.31;94.38
15308;BME280;7755;52.208;6.964;2023-04-15T02:04:49;100550.69;;;7.27;94.25
15308;BME280;7755;52.208;6.964;2023-04-15T02:08:52;100551.34;;;7.23;94.87
15308;BME280;7755;52.208;6.964;2023-04-15T02:12:55;100549.31;;;7.18;95.35
15308;BME280;7755;52.208;6.964;2023-04-15T02:17:03;100548.69;;;7.16;95.40
15308;BME280;7755;52.208;6.964;2023-04-15T02:21:09;100539.41;;;7.12;96.01
15308;BME280;7755;52.208;6.964;2023-04-15T02:25:12;100545.22;;;7.09;95.73
15308;BME280;7755;52.208;6.964;2023-04-15T02:29:14;100558.56;;;7.04;96.09
15308;BME280;7755;52.208;6.964;2023-04-15T02:33:20;100564.88;;;6.98;96.77
15308;BME280;7755;52.208;6.964;2023-04-15T02:37:22;100566.38;;;6.94;96.89
15308;BME280;7755;52.208;6.964;2023-04-15T02:41:29;100562.88;;;6.87;98.63
15308;BME280;7755;52.208;6.964;2023-04-15T02:45:32;100577.44;;;6.86;98.91
15308;BME280;7755;52.208;6.964;2023-04-15T02:49:38;100579.75;;;6.82;99.85
15308;BME280;7755;52.208;6.964;2023-04-15T02:53:41;100580.56;;;6.82;99.99
15308;BME280;7755;52.208;6.964;2023-04-15T02:57:44;100589.97;;;6.80;99.90
15308;BME280;7755;52.208;6.964;2023-04-15T03:01:47;100593.94;;;6.77;100.00
15308;BME280;7755;52.208;6.964;2023-04-15T03:05:51;100594.94;;;6.76;100.00
15308;BME280;7755;52.208;6.964;2023-04-15T03:09:54;100600.59;;;6.75;100.00
15308;BME280;7755;52.208;6.964;2023-04-15T03:13:57;100591.28;;;6.71;100.00
15308;BME280;7755;52.208;6.964;2023-04-15T03:18:05;100601.91;;;6.66;100.00
15308;BME280;7755;52.208;6.964;2023-04-15T03:22:09;100605.00;;;6.63;100.00
15308;BME280;7755;52.208;6.964;2023-04-15T03:26:23;100607.97;;;6.54;100.00
15308;BME280;7755;52.208;6.964;2023-04-15T03:30:26;100610.31;;;6.51;100.00
15308;BME280;7755;52.208;6.964;2023-04-15T03:34:29;100616.34;;;6.46;100.00
15308;BME280;7755;52.208;6.964;2023-04-15T03:38:34;100616.97;;;6.42;100.00
15308;BME280;7755;52.208;6.964;2023-04-15T03:42:36;100623.44;;;6.41;100.00
15308;BME280;7755;52.208;6.964;2023-04-15T03:46:39;100618.47;;;6.38;100.00
15308;BME280;7755;52.208;6.964;2023-04-15T03:50:42;100622.19;;;6.37;100.00
15308;BME280;7755;52.208;6.964;2023-04-15T03:54:46;100635.09;;;6.35;100.00
15308;BME280;7755;52.208;6.964;2023-04-15T03:58:49;100631.16;;;6.31;100.00
15308;BME280;7755;52.208;6.964;2023-04-15T04:02:51;100634.91;;;6.23;100.00
15308;BME280;7755;52.208;6.964;2023-04-15T04:06:54;100633.09;;;6.17;100.00
15308;BME280;7755;52.208;6.964;2023-04-15T04:10:59;100639.31;;;6.17;100.00
15308;BME280;7755;52.208;6.964;2023-04-15T04:15:01;100648.25;;;6.11;100.00
15308;BME280;7755;52.208;6.964;2023-04-15T04:19:04;100652.41;;;6.07;100.00
15308;BME280;7755;52.208;6.964;2023-04-15T04:23:07;100642.25;;;6.02;100.00
15308;BME280;7755;52.208;6.964;2023-04-15T04:27:11;100653.47;;;5.99;100.00
15308;BME280;7755;52.208;6.964;2023-04-15T04:31:14;100643.53;;;5.93;100.00
15308;BME280;7755;52.208;6.964;2023-04-15T04:35:17;100653.28;;;5.94;100.00
15308;BME280;7755;52.208;6.964;2023-04-15T04:39:20;100655.38;;;5.92;100.00
15308;BME280;7755;52.208;6.964;2023-04-15T04:43:24;100652.69;;;5.92;100.00
15308;BME280;7755;52.208;6.964;2023-04-15T04:47:27;100654.53;;;5.92;100.00
15308;BME280;7755;52.208;6.964;2023-04-15T04:51:30;100653.06;;;5.89;100.00
15308;BME280;7755;52.208;6.964;2023-04-15T04:55:33;100658.66;;;5.88;100.00
15308;BME280;7755;52.208;6.964;2023-04-15T04:59:38;100666.97;;;5.86;100.00
15308;BME280;7755;52.208;6.964;2023-04-15T05:03:41;100672.16;;;5.88;100.00
15308;BME280;7755;52.208;6.964;2023-04-15T05:07:44;100664.69;;;5.90;100.00
15308;BME280;7755;52.208;6.964;2023-04-15T05:11:47;100671.09;;;5.89;100.00
15308;BME280;7755;52.208;6.964;2023-04-15T05:15:51;100677.34;;;5.96;100.00
15308;BME280;7755;52.208;6.964;2023-04-15T05:19:54;100684.44;;;5.97;100.00
15308;BME280;7755;52.208;6.964;2023-04-15T05:23:57;100691.47;;;5.98;100.00
15308;BME280;7755;52.208;6.964;2023-04-15T05:27:59;100698.09;;;6.02;100.00
15308;BME280;7755;52.208;6.964;2023-04-15T05:32:04;100703.72;;;6.00;100.00
15308;BME280;7755;52.208;6.964;2023-04-15T05:36:07;100712.22;;;6.04;100.00
15308;BME280;7755;52.208;6.964;2023-04-15T05:40:10;100722.38;;;6.09;100.00
15308;BME280;7755;52.208;6.964;2023-04-15T05:44:13;100733.38;;;6.07;100.00
15308;BME280;7755;52.208;6.964;2023-04-15T05:48:17;100733.38;;;6.07;100.00
15308;BME280;7755;52.208;6.964;2023-04-15T05:52:20;100738.16;;;6.12;100.00
15308;BME280;7755;52.208;6.964;2023-04-15T05:56:23;100750.00;;;6.17;100.00
15308;BME280;7755;52.208;6.964;2023-04-15T06:00:27;100743.94;;;6.22;100.00
15308;BME280;7755;52.208;6.964;2023-04-15T06:04:31;100754.53;;;6.30;100.00
15308;BME280;7755;52.208;6.964;2023-04-15T06:08:34;100752.00;;;6.35;100.00
15308;BME280;7755;52.208;6.964;2023-04-15T06:12:36;100743.69;;;6.43;100.00
15308;BME280;7755;52.208;6.964;2023-04-15T06:16:39;100758.63;;;6.52;100.00
15308;BME280;7755;52.208;6.964;2023-04-15T06:20:44;100761.31;;;6.59;100.00
15308;BME280;7755;52.208;6.964;2023-04-15T06:24:47;100761.28;;;6.66;100.00
15308;BME280;7755;52.208;6.964;2023-04-15T06:28:50;100763.75;;;6.74;100.00
15308;BME280;7755;52.208;6.964;2023-04-15T06:32:54;100760.78;;;6.82;100.00
15308;BME280;7755;52.208;6.964;2023-04-15T06:36:59;100768.25;;;6.93;100.00
15308;BME280;7755;52.208;6.964;2023-04-15T06:41:04;100768.19;;;7.06;100.00
15308;BME280;7755;52.208;6.964;2023-04-15T06:45:07;100766.25;;;7.14;100.00
15308;BME280;7755;52.208;6.964;2023-04-15T06:49:10;100773.91;;;7.23;100.00
15308;BME280;7755;52.208;6.964;2023-04-15T06:53:14;100771.97;;;7.30;100.00
15308;BME280;7755;52.208;6.964;2023-04-15T06:57:17;100784.38;;;7.45;100.00
15308;BME280;7755;52.208;6.964;2023-04-15T07:01:20;100782.25;;;7.53;100.00
15308;BME280;7755;52.208;6.964;2023-04-15T07:05:23;100783.81;;;7.68;100.00
15308;BME280;7755;52.208;6.964;2023-04-15T07:09:28;100784.53;;;7.81;100.00
15308;BME280;7755;52.208;6.964;2023-04-15T07:13:31;100797.38;;;7.92;100.00
15308;BME280;7755;52.208;6.964;2023-04-15T07:17:34;100792.66;;;8.06;100.00
15308;BME280;7755;52.208;6.964;2023-04-15T07:21:37;100794.69;;;8.11;100.00
15308;BME280;7755;52.208;6.964;2023-04-15T07:25:43;100797.81;;;8.14;100.00
15308;BME280;7755;52.208;6.964;2023-04-15T07:29:47;100801.50;;;8.20;100.00
15308;BME280;7755;52.208;6.964;2023-04-15T07:33:49;100808.72;;;8.26;100.00
15308;BME280;7755;52.208;6.964;2023-04-15T07:37:52;100805.56;;;8.29;100.00
15308;BME280;7755;52.208;6.964;2023-04-15T07:41:56;100799.91;;;8.37;100.00
15308;BME280;7755;52.208;6.964;2023-04-15T07:46:00;100808.94;;;8.50;100.00
15308;BME280;7755;52.208;6.964;2023-04-15T07:50:03;100803.06;;;8.53;100.00
15308;BME280;7755;52.208;6.964;2023-04-15T07:54:05;100804.22;;;8.63;100.00
15308;BME280;7755;52.208;6.964;2023-04-15T07:58:10;100820.03;;;8.85;100.00
15308;BME280;7755;52.208;6.964;2023-04-15T08:02:12;100818.38;;;9.02;100.00
15308;BME280;7755;52.208;6.964;2023-04-15T08:06:15;100822.25;;;9.06;100.00
15308;BME280;7755;52.208;6.964;2023-04-15T08:10:19;100823.91;;;9.07;100.00
15308;BME280;7755;52.208;6.964;2023-04-15T08:14:23;100825.72;;;9.13;100.00
15308;BME280;7755;52.208;6.964;2023-04-15T08:18:26;100841.63;;;9.10;100.00
15308;BME280;7755;52.208;6.964;2023-04-15T08:22:29;100843.53;;;9.09;100.00
15308;BME280;7755;52.208;6.964;2023-04-15T08:26:31;100842.69;;;9.09;100.00
15308;BME280;7755;52.208;6.964;2023-04-15T08:30:35;100838.44;;;9.31;100.00
15308;BME280;7755;52.208;6.964;2023-04-15T08:34:38;100845.34;;;9.45;100.00
15308;BME280;7755;52.208;6.964;2023-04-15T08:38:41;100846.06;;;9.52;100.00
15308;BME280;7755;52.208;6.964;2023-04-15T08:42:47;100865.38;;;9.63;100.00
15308;BME280;7755;52.208;6.964;2023-04-15T08:46:52;100851.91;;;9.68;100.00
15308;BME280;7755;52.208;6.964;2023-04-15T08:50:57;100859.56;;;9.89;100.00
15308;BME280;7755;52.208;6.964;2023-04-15T08:55:01;100847.03;;;10.00;100.00
15308;BME280;7755;52.208;6.964;2023-04-15T08:59:05;100861.78;;;9.92;100.00
15308;BME280;7755;52.208;6.964;2023-04-15T09:03:10;100852.72;;;9.98;100.00
15308;BME280;7755;52.208;6.964;2023-04-15T09:07:13;100860.53;;;10.06;100.00
15308;BME280;7755;52.208;6.964;2023-04-15T09:11:17;100870.69;;;10.11;100.00
15308;BME280;7755;52.208;6.964;2023-04-15T09:15:20;100875.31;;;10.10;100.00
15308;BME280;7755;52.208;6.964;2023-04-15T09:19:27;100880.81;;;9.92;100.00
15308;BME280;7755;52.208;6.964;2023-04-15T09:23:31;100881.31;;;10.12;100.00
15308;BME280;7755;52.208;6.964;2023-04-15T09:27:35;100884.69;;;10.26;100.00
15308;BME280;7755;52.208;6.964;2023-04-15T09:31:38;100888.22;;;10.27;100.00
15308;BME280;7755;52.208;6.964;2023-04-15T09:35:55;100894.38;;;10.34;99.97
15308;BME280;7755;52.208;6.964;2023-04-15T09:39:58;100884.81;;;10.55;99.55
15308;BME280;7755;52.208;6.964;2023-04-15T09:44:01;100892.06;;;10.73;98.58
15308;BME280;7755;52.208;6.964;2023-04-15T09:48:18;100906.47;;;10.73;97.88
15308;BME280;7755;52.208;6.964;2023-04-15T09:52:23;100903.97;;;10.83;97.29
15308;BME280;7755;52.208;6.964;2023-04-15T09:56:31;100908.25;;;10.91;96.40
15308;BME280;7755;52.208;6.964;2023-04-15T10:00:34;100917.56;;;11.07;96.31
15308;BME280;7755;52.208;6.964;2023-04-15T10:04:40;100913.44;;;11.04;94.91
15308;BME280;7755;52.208;6.964;2023-04-15T10:08:45;100913.66;;;11.03;94.81
15308;BME280;7755;52.208;6.964;2023-04-15T10:12:48;100910.13;;;11.02;94.97
15308;BME280;7755;52.208;6.964;2023-04-15T10:16:55;100920.66;;;10.87;94.57
15308;BME280;7755;52.208;6.964;2023-04-15T10:21:00;100915.72;;;10.84;95.39
15308;BME280;7755;52.208;6.964;2023-04-15T10:25:05;100929.19;;;10.79;95.95
15308;BME280;7755;52.208;6.964;2023-04-15T10:29:09;100922.78;;;10.61;96.20
15308;BME280;7755;52.208;6.964;2023-04-15T10:33:13;100928.81;;;10.52;96.83
15308;BME280;7755;52.208;6.964;2023-04-15T10:37:22;100925.38;;;10.45;97.45
15308;BME280;7755;52.208;6.964;2023-04-15T10:41:27;100930.59;;;10.58;97.56
15308;BME280;7755;52.208;6.964;2023-04-15T10:45:33;100929.28;;;10.60;96.67
15308;BME280;7755;52.208;6.964;2023-04-15T10:49:47;100929.03;;;10.62;96.38
15308;BME280;7755;52.208;6.964;2023-04-15T10:53:55;100932.69;;;10.56;95.37
15308;BME280;7755;52.208;6.964;2023-04-15T10:58:00;100928.56;;;10.53;95.90
15308;BME280;7755;52.208;6.964;2023-04-15T11:02:05;100945.16;;;10.63;95.75
15308;BME280;7755;52.208;6.964;2023-04-15T11:06:08;100936.84;;;10.70;95.16
15308;BME280;7755;52.208;6.964;2023-04-15T11:14:58;100937.81;;;10.76;94.17
15308;BME280;7755;52.208;6.964;2023-04-15T11:19:00;100944.44;;;10.80;94.59
15308;BME280;7755;52.208;6.964;2023-04-15T11:23:04;100951.66;;;10.86;93.39
15308;BME280;7755;52.208;6.964;2023-04-15T11:27:20;100954.50;;;10.91;93.58
15308;BME280;7755;52.208;6.964;2023-04-15T11:31:26;100963.22;;;10.81;93.97
15308;BME280;7755;52.208;6.964;2023-04-15T11:35:31;100967.50;;;10.89;94.23
15308;BME280;7755;52.208;6.964;2023-04-15T11:39:36;100975.41;;;10.90;94.01
15308;BME280;7755;52.208;6.964;2023-04-15T11:43:38;100964.66;;;10.96;94.49
15308;BME280;7755;52.208;6.964;2023-04-15T11:47:43;100976.34;;;10.96;94.60
15308;BME280;7755;52.208;6.964;2023-04-15T11:51:46;100974.47;;;10.97;94.23
15308;BME280;7755;52.208;6.964;2023-04-15T11:55:50;100975.28;;;10.97;94.21
15308;BME280;7755;52.208;6.964;2023-04-15T11:59:53;100975.53;;;11.19;93.20
15308;BME280;7755;52.208;6.964;2023-04-15T12:03:58;100978.47;;;11.29;93.37
15308;BME280;7755;52.208;6.964;2023-04-15T12:08:02;100983.69;;;11.31;93.58
15308;BME280;7755;52.208;6.964;2023-04-15T12:12:05;100992.56;;;11.14;94.00
15308;BME280;7755;52.208;6.964;2023-04-15T12:16:07;100998.50;;;11.11;93.66
15308;BME280;7755;52.208;6.964;2023-04-15T12:20:12;101002.25;;;11.10;94.48
15308;BME280;7755;52.208;6.964;2023-04-15T12:24:14;101013.75;;;11.01;95.18
15308;BME280;7755;52.208;6.964;2023-04-15T12:28:21;101017.53;;;11.00;96.69
15308;BME280;7755;52.208;6.964;2023-04-15T12:32:24;101017.41;;;10.94;97.31
15308;BME280;7755;52.208;6.964;2023-04-15T12:36:30;101023.94;;;11.05;98.71
15308;BME280;7755;52.208;6.964;2023-04-15T12:40:36;101043.22;;;11.15;98.57
15308;BME280;7755;52.208;6.964;2023-04-15T12:44:40;101047.81;;;11.03;98.29
15308;BME280;7755;52.208;6.964;2023-04-15T12:48:43;101047.00;;;10.91;98.58
15308;BME280;7755;52.208;6.964;2023-04-15T12:52:47;101042.84;;;11.00;99.34
15308;BME280;7755;52.208;6.964;2023-04-15T12:56:50;101055.84;;;11.10;98.80
15308;BME280;7755;52.208;6.964;2023-04-15T13:00:53;101045.19;;;10.97;98.00
15308;BME280;7755;52.208;6.964;2023-04-15T13:04:57;101056.81;;;10.92;98.92
15308;BME280;7755;52.208;6.964;2023-04-15T13:09:01;101050.75;;;10.90;99.71
15308;BME280;7755;52.208;6.964;2023-04-15T13:13:06;101053.72;;;10.88;99.94
15308;BME280;7755;52.208;6.964;2023-04-15T13:17:09;101058.78;;;10.97;100.00
15308;BME280;7755;52.208;6.964;2023-04-15T13:21:12;101059.88;;;11.07;100.00
15308;BME280;7755;52.208;6.964;2023-04-15T13:25:16;101064.97;;;11.04;100.00
15308;BME280;7755;52.208;6.964;2023-04-15T13:29:22;101067.78;;;10.97;100.00
15308;BME280;7755;52.208;6.964;2023-04-15T13:33:25;101068.38;;;10.87;100.00
15308;BME280;7755;52.208;6.964;2023-04-15T13:37:29;101075.09;;;10.73;100.00
15308;BME280;7755;52.208;6.964;2023-04-15T13:41:33;101079.09;;;10.71;100.00
15308;BME280;7755;52.208;6.964;2023-04-15T13:45:38;101080.72;;;10.60;100.00
15308;BME280;7755;52.208;6.964;2023-04-15T13:49:40;101088.56;;;10.38;100.00
15308;BME280;7755;52.208;6.964;2023-04-15T13:53:43;101102.91;;;10.27;100.00
15308;BME280;7755;52.208;6.964;2023-04-15T13:57:47;101111.78;;;10.16;100.00
15308;BME280;7755;52.208;6.964;2023-04-15T14:01:50;101112.25;;;10.12;100.00
15308;BME280;7755;52.208;6.964;2023-04-15T14:05:53;101110.53;;;10.18;100.00
15308;BME280;7755;52.208;6.964;2023-04-15T14:09:57;101120.41;;;10.12;100.00
15308;BME280;7755;52.208;6.964;2023-04-15T14:14:01;101124.25;;;10.05;100.00
15308;BME280;7755;52.208;6.964;2023-04-15T14:18:04;101134.97;;;10.00;100.00
15308;BME280;7755;52.208;6.964;2023-04-15T14:22:07;101129.22;;;10.08;100.00
15308;BME280;7755;52.208;6.964;2023-04-15T14:26:16;101125.75;;;10.01;100.00
15308;BME280;7755;52.208;6.964;2023-04-15T14:30:21;101130.69;;;9.92;100.00
15308;BME280;7755;52.208;6.964;2023-04-15T14:34:25;101128.94;;;9.98;100.00
15308;BME280;7755;52.208;6.964;2023-04-15T14:38:27;101131.91;;;9.96;100.00
15308;BME280;7755;52.208;6.964;2023-04-15T14:42:31;101141.16;;;9.89;100.00
15308;BME280;7755;52.208;6.964;2023-04-15T14:46:35;101148.25;;;9.90;100.00
15308;BME280;7755;52.208;6.964;2023-04-15T14:50:39;101154.72;;;9.89;100.00
15308;BME280;7755;52.208;6.964;2023-04-15T14:54:41;101151.50;;;9.98;100.00
15308;BME280;7755;52.208;6.964;2023-04-15T14:58:44;101160.47;;;9.99;100.00
15308;BME280;7755;52.208;6.964;2023-04-15T15:02:48;101167.03;;;9.91;100.00
15308;BME280;7755;52.208;6.964;2023-04-15T15:06:51;101171.53;;;9.79;100.00
15308;BME280;7755;52.208;6.964;2023-04-15T15:10:54;101172.84;;;9.76;100.00
15308;BME280;7755;52.208;6.964;2023-04-15T15:14:56;101180.16;;;9.76;100.00
15308;BME280;7755;52.208;6.964;2023-04-15T15:19:01;101177.03;;;9.72;100.00
15308;BME280;7755;52.208;6.964;2023-04-15T15:23:04;101182.69;;;9.71;100.00
15308;BME280;7755;52.208;6.964;2023-04-15T15:27:06;101192.72;;;9.70;100.00
15308;BME280;7755;52.208;6.964;2023-04-15T15:31:09;101194.63;;;9.70;100.00
15308;BME280;7755;52.208;6.964;2023-04-15T15:35:13;101205.31;;;9.65;100.00
15308;BME280;7755;52.208;6.964;2023-04-15T15:39:16;101208.69;;;9.60;100.00
15308;BME280;7755;52.208;6.964;2023-04-15T15:43:19;101215.44;;;9.51;100.00
15308;BME280;7755;52.208;6.964;2023-04-15T15:47:22;101223.03;;;9.42;100.00
15308;BME280;7755;52.208;6.964;2023-04-15T15:51:28;101212.28;;;9.29;100.00
15308;BME280;7755;52.208;6.964;2023-04-15T15:55:31;101223.19;;;9.22;100.00
15308;BME280;7755;52.208;6.964;2023-04-15T15:59:34;101230.84;;;9.25;100.00
15308;BME280;7755;52.208;6.964;2023-04-15T16:03:41;101234.06;;;9.16;100.00
15308;BME280;7755;52.208;6.964;2023-04-15T16:07:45;101232.44;;;9.08;100.00
15308;BME280;7755;52.208;6.964;2023-04-15T16:11:48;101249.09;;;9.12;100.00
15308;BME280;7755;52.208;6.964;2023-04-15T16:15:51;101246.81;;;9.15;100.00
15308;BME280;7755;52.208;6.964;2023-04-15T16:19:53;101250.56;;;9.08;100.00
15308;BME280;7755;52.208;6.964;2023-04-15T16:24:03;101249.72;;;9.14;100.00
15308;BME280;7755;52.208;6.964;2023-04-15T16:28:06;101262.88;;;9.10;100.00
15308;BME280;7755;52.208;6.964;2023-04-15T16:32:09;101260.13;;;9.17;100.00
15308;BME280;7755;52.208;6.964;2023-04-15T16:36:12;101268.91;;;9.12;100.00
15308;BME280;7755;52.208;6.964;2023-04-15T16:40:16;101270.22;;;9.03;100.00
15308;BME280;7755;52.208;6.964;2023-04-15T16:44:19;101270.22;;;9.03;100.00
15308;BME280;7755;52.208;6.964;2023-04-15T16:48:22;101281.88;;;9.10;100.00
15308;BME280;7755;52.208;6.964;2023-04-15T16:52:24;101288.81;;;8.99;100.00
15308;BME280;7755;52.208;6.964;2023-04-15T16:56:28;101290.28;;;9.02;100.00
15308;BME280;7755;52.208;6.964;2023-04-15T17:00:32;101286.72;;;9.01;100.00
15308;BME280;7755;52.208;6.964;2023-04-15T17:04:37;101298.81;;;8.99;100.00
15308;BME280;7755;52.208;6.964;2023-04-15T17:08:40;101305.50;;;9.03;100.00
15308;BME280;7755;52.208;6.964;2023-04-15T17:12:44;101301.75;;;8.97;100.00
15308;BME280;7755;52.208;6.964;2023-04-15T17:16:46;101306.56;;;8.95;100.00
15308;BME280;7755;52.208;6.964;2023-04-15T17:20:49;101313.66;;;8.96;100.00
15308;BME280;7755;52.208;6.964;2023-04-15T17:24:52;101321.56;;;8.98;100.00
15308;BME280;7755;52.208;6.964;2023-04-15T17:28:56;101325.97;;;8.92;100.00
15308;BME280;7755;52.208;6.964;2023-04-15T17:32:59;101331.41;;;8.86;100.00
15308;BME280;7755;52.208;6.964;2023-04-15T17:37:02;101325.13;;;8.92;100.00
15308;BME280;7755;52.208;6.964;2023-04-15T17:41:05;101339.13;;;8.89;100.00
15308;BME280;7755;52.208;6.964;2023-04-15T17:45:10;101341.22;;;8.80;100.00
15308;BME280;7755;52.208;6.964;2023-04-15T17:49:13;101348.13;;;8.76;100.00
15308;BME280;7755;52.208;6.964;2023-04-15T17:53:16;101353.56;;;8.76;100.00
15308;BME280;7755;52.208;6.964;2023-04-15T17:57:18;101352.09;;;8.73;100.00
15308;BME280;7755;52.208;6.964;2023-04-15T18:01:22;101347.72;;;8.72;100.00
15308;BME280;7755;52.208;6.964;2023-04-15T18:05:25;101358.97;;;8.76;100.00
15308;BME280;7755;52.208;6.964;2023-04-15T18:09:29;101365.25;;;8.70;100.00
15308;BME280;7755;52.208;6.964;2023-04-15T18:13:32;101374.44;;;8.69;100.00
15308;BME280;7755;52.208;6.964;2023-04-15T18:17:36;101369.41;;;8.72;100.00
15308;BME280;7755;52.208;6.964;2023-04-15T18:21:39;101379.63;;;8.77;100.00
15308;BME280;7755;52.208;6.964;2023-04-15T18:25:41;101390.91;;;8.74;100.00
15308;BME280;7755;52.208;6.964;2023-04-15T18:29:45;101398.63;;;8.70;100.00
15308;BME280;7755;52.208;6.964;2023-04-15T18:33:49;101402.59;;;8.74;100.00
15308;BME280;7755;52.208;6.964;2023-04-15T18:37:52;101414.25;;;8.68;100.00
15308;BME280;7755;52.208;6.964;2023-04-15T18:41:55;101424.06;;;8.69;100.00
15308;BME280;7755;52.208;6.964;2023-04-15T18:45:58;101434.69;;;8.58;100.00
15308;BME280;7755;52.208;6.964;2023-04-15T18:50:04;101431.16;;;8.57;100.00
15308;BME280;7755;52.208;6.964;2023-04-15T18:54:07;101443.25;;;8.48;100.00
15308;BME280;7755;52.208;6.964;2023-04-15T18:58:10;101446.59;;;8.50;100.00
15308;BME280;7755;52.208;6.964;2023-04-15T19:02:13;101464.72;;;8.43;100.00
15308;BME280;7755;52.208;6.964;2023-04-15T19:06:17;101464.28;;;8.53;100.00
15308;BME280;7755;52.208;6.964;2023-04-15T19:10:20;101460.75;;;8.45;100.00
15308;BME280;7755;52.208;6.964;2023-04-15T19:14:23;101475.56;;;8.50;100.00
15308;BME280;7755;52.208;6.964;2023-04-15T19:18:26;101469.53;;;8.47;100.00
15308;BME280;7755;52.208;6.964;2023-04-15T19:22:30;101484.53;;;8.50;100.00
15308;BME280;7755;52.208;6.964;2023-04-15T19:26:33;101481.38;;;8.53;100.00
15308;BME280;7755;52.208;6.964;2023-04-15T19:30:37;101489.34;;;8.61;100.00
15308;BME280;7755;52.208;6.964;2023-04-15T19:34:39;101489.72;;;8.58;100.00
15308;BME280;7755;52.208;6.964;2023-04-15T19:38:43;101508.94;;;8.57;100.00
15308;BME280;7755;52.208;6.964;2023-04-15T19:42:46;101511.84;;;8.48;100.00
15308;BME280;7755;52.208;6.964;2023-04-15T19:46:49;101509.97;;;8.49;100.00
15308;BME280;7755;52.208;6.964;2023-04-15T19:50:54;101520.19;;;8.54;100.00
15308;BME280;7755;52.208;6.964;2023-04-15T19:54:59;101510.38;;;8.53;100.00
15308;BME280;7755;52.208;6.964;2023-04-15T19:59:02;101521.44;;;8.58;100.00
15308;BME280;7755;52.208;6.964;2023-04-15T20:03:05;101509.53;;;8.52;100.00
15308;BME280;7755;52.208;6.964;2023-04-15T20:07:08;101511.19;;;8.46;100.00
15308;BME280;7755;52.208;6.964;2023-04-15T20:11:12;101522.03;;;8.40;100.00
15308;BME280;7755;52.208;6.964;2023-04-15T20:15:15;101513.50;;;8.36;100.00
15308;BME280;7755;52.208;6.964;2023-04-15T20:19:18;101513.66;;;8.35;100.00
15308;BME280;7755;52.208;6.964;2023-04-15T20:23:21;101516.78;;;8.32;100.00
15308;BME280;7755;52.208;6.964;2023-04-15T20:27:25;101512.84;;;8.34;100.00
15308;BME280;7755;52.208;6.964;2023-04-15T20:31:28;101518.69;;;8.38;100.00
15308;BME280;7755;52.208;6.964;2023-04-15T20:35:31;101519.53;;;8.45;100.00
15308;BME280;7755;52.208;6.964;2023-04-15T20:39:34;101517.41;;;8.34;100.00
15308;BME280;7755;52.208;6.964;2023-04-15T20:43:38;101512.41;;;8.31;100.00
15308;BME280;7755;52.208;6.964;2023-04-15T20:47:40;101516.59;;;8.33;100.00
15308;BME280;7755;52.208;6.964;2023-04-15T20:51:43;101511.16;;;8.33;100.00
15308;BME280;7755;52.208;6.964;2023-04-15T20:55:46;101521.78;;;8.35;100.00
15308;BME280;7755;52.208;6.964;2023-04-15T20:59:50;101522.66;;;8.35;100.00
15308;BME280;7755;52.208;6.964;2023-04-15T21:03:54;101538.91;;;8.35;100.00
15308;BME280;7755;52.208;6.964;2023-04-15T21:07:57;101542.63;;;8.34;100.00
15308;BME280;7755;52.208;6.964;2023-04-15T21:11:59;101546.00;;;8.36;100.00
15308;BME280;7755;52.208;6.964;2023-04-15T21:16:04;101533.06;;;8.38;100.00
15308;BME280;7755;52.208;6.964;2023-04-15T21:20:08;101541.19;;;8.38;100.00
15308;BME280;7755;52.208;6.964;2023-04-15T21:24:11;101536.63;;;8.45;100.00
15308;BME280;7755;52.208;6.964;2023-04-15T21:28:13;101549.13;;;8.53;100.00
15308;BME280;7755;52.208;6.964;2023-04-15T21:32:18;101543.53;;;8.48;100.00
15308;BME280;7755;52.208;6.964;2023-04-15T21:36:21;101547.91;;;8.49;100.00